This is the latest recevied weather packets stored in our database for station/object SV9TNF-4. If no packets are shown the sender has not sent any weather packets the latest 10 day(s).
| Time | Temp. | Humidity | Pressure | Rain* | Wind** | Luminosity | Snow |
|---|---|---|---|---|---|---|---|
| 1777905759 | 18.33° C | 53% | 1020.3 hPa | 0 mm | 16.09 m/s, 264° | - | - |
| 1777905459 | 18.33° C | 53% | 1020.3 hPa | 0 mm | 16.09 m/s, 264° | - | - |
| 1777905158 | 18.33° C | 53% | 1020.3 hPa | 0 mm | 16.09 m/s, 264° | - | - |
| 1777904858 | 17.78° C | 54% | 1020.3 hPa | 0 mm | 14.31 m/s, 278° | - | - |
| 1777904558 | 17.78° C | 54% | 1020.3 hPa | 0 mm | 14.31 m/s, 278° | - | - |
| 1777904258 | 17.78° C | 54% | 1020.3 hPa | 0 mm | 14.31 m/s, 278° | - | - |
| 1777903958 | 17.78° C | 54% | 1020.3 hPa | 0 mm | 14.31 m/s, 278° | - | - |
| 1777903658 | 18.33° C | 51% | 1020.3 hPa | 0 mm | 12.96 m/s, 293° | - | - |
| 1777903358 | 18.33° C | 51% | 1020.3 hPa | 0 mm | 12.96 m/s, 293° | - | - |
| 1777902626 | 18.33° C | 52% | 1020.3 hPa | 0 mm | 19.22 m/s, 286° | - | - |
| 1777902325 | 18.33° C | 52% | 1020.3 hPa | 0 mm | 19.22 m/s, 286° | - | - |
| 1777902025 | 18.33° C | 52% | 1020.3 hPa | 0 mm | 19.22 m/s, 286° | - | - |
| 1777901725 | 18.33° C | 52% | 1020.3 hPa | 0 mm | 19.22 m/s, 286° | - | - |
| 1777901425 | 18.33° C | 52% | 1020.3 hPa | 0 mm | 22.35 m/s, 276° | - | - |
| 1777901125 | 18.33° C | 52% | 1020.3 hPa | 0 mm | 22.35 m/s, 276° | - | - |
| 1777900824 | 18.33° C | 52% | 1020.3 hPa | 0 mm | 22.35 m/s, 276° | - | - |
| 1777900524 | 18.33° C | 52% | 1020.3 hPa | 0 mm | 22.35 m/s, 276° | - | - |
| 1777900224 | 18.33° C | 52% | 1020.3 hPa | 0 mm | 22.35 m/s, 276° | - | - |
| 1777899924 | 18.33° C | 52% | 1020.3 hPa | 0 mm | 22.35 m/s, 276° | - | - |
| 1777899624 | 18.33° C | 52% | 1020.3 hPa | 0 mm | 22.35 m/s, 276° | - | - |
| 1777899024 | 18.89° C | 49% | 1020.7 hPa | 0 mm | 21.01 m/s, 294° | - | - |
| 1777898424 | 18.89° C | 49% | 1020.7 hPa | 0 mm | 21.01 m/s, 294° | - | - |
| 1777898124 | 18.89° C | 49% | 1020.7 hPa | 0 mm | 21.01 m/s, 294° | - | - |
| 1777897824 | 18.89° C | 49% | 1020.7 hPa | 0 mm | 21.01 m/s, 294° | - | - |
| 1777897223 | 18.89° C | 50% | 1021 hPa | 0 mm | 21.01 m/s, 307° | - | - |
* Rain latest hour (hover to see other rain measurements)
** Current wind speed in m/s (hover to see current wind gust speed)